Air Navigation Services of Czech Republic
Airport: LKTB Updated:  01.04.2020 01:30:26  UTC
 METAR LKTB 01.04. 01:30 ...
METAR LKTB 010130Z 30002KT CAVOK M03/M06 Q1025 NOSIG RMK REG QNH 1020=
 TAF LKTB 31.03. 23:00 ...
TAF LKTB 312300Z 0100/0206 33004KT CAVOK      BECMG 0110/0112 18006KT=